sensor_id;sensor_type;location;lat;lon;timestamp;P1;durP1;ratioP1;P2;durP2;ratioP2
71298;SDS011;59083;47.974;21.722;2023-02-01T00:02:29;11.37;;;4.17;;
71298;SDS011;59083;47.974;21.722;2023-02-01T00:05:30;11.15;;;4.50;;
71298;SDS011;59083;47.974;21.722;2023-02-01T00:08:32;11.25;;;4.35;;
71298;SDS011;59083;47.974;21.722;2023-02-01T00:11:33;12.95;;;4.57;;
71298;SDS011;59083;47.974;21.722;2023-02-01T00:14:34;10.13;;;3.77;;
71298;SDS011;59083;47.974;21.722;2023-02-01T00:17:39;9.60;;;4.07;;
71298;SDS011;59083;47.974;21.722;2023-02-01T00:20:45;10.65;;;4.35;;
71298;SDS011;59083;47.974;21.722;2023-02-01T00:23:47;10.32;;;3.78;;
71298;SDS011;59083;47.974;21.722;2023-02-01T00:26:49;11.75;;;3.95;;
71298;SDS011;59083;47.974;21.722;2023-02-01T00:29:51;14.43;;;4.53;;
71298;SDS011;59083;47.974;21.722;2023-02-01T00:32:52;9.70;;;3.87;;
71298;SDS011;59083;47.974;21.722;2023-02-01T00:35:57;15.27;;;4.25;;
71298;SDS011;59083;47.974;21.722;2023-02-01T00:39:01;10.50;;;3.83;;
71298;SDS011;59083;47.974;21.722;2023-02-01T00:42:03;11.05;;;4.12;;
71298;SDS011;59083;47.974;21.722;2023-02-01T00:45:04;12.97;;;4.17;;
71298;SDS011;59083;47.974;21.722;2023-02-01T00:48:06;11.57;;;3.93;;
71298;SDS011;59083;47.974;21.722;2023-02-01T00:51:13;8.38;;;3.67;;
71298;SDS011;59083;47.974;21.722;2023-02-01T00:54:16;14.13;;;3.85;;
71298;SDS011;59083;47.974;21.722;2023-02-01T00:57:17;11.88;;;4.20;;
71298;SDS011;59083;47.974;21.722;2023-02-01T01:00:18;9.67;;;3.40;;
71298;SDS011;59083;47.974;21.722;2023-02-01T01:03:19;10.17;;;3.60;;
71298;SDS011;59083;47.974;21.722;2023-02-01T01:06:22;10.85;;;3.85;;
71298;SDS011;59083;47.974;21.722;2023-02-01T01:09:25;11.80;;;4.03;;
71298;SDS011;59083;47.974;21.722;2023-02-01T01:12:26;8.50;;;3.05;;
71298;SDS011;59083;47.974;21.722;2023-02-01T01:15:27;12.83;;;4.20;;
71298;SDS011;59083;47.974;21.722;2023-02-01T01:18:30;12.20;;;4.13;;
71298;SDS011;59083;47.974;21.722;2023-02-01T01:21:32;12.43;;;3.67;;
71298;SDS011;59083;47.974;21.722;2023-02-01T01:24:33;13.38;;;4.03;;
71298;SDS011;59083;47.974;21.722;2023-02-01T01:27:34;8.60;;;3.62;;
71298;SDS011;59083;47.974;21.722;2023-02-01T01:30:36;11.10;;;3.60;;
71298;SDS011;59083;47.974;21.722;2023-02-01T01:33:37;11.53;;;3.50;;
71298;SDS011;59083;47.974;21.722;2023-02-01T01:36:39;10.93;;;3.60;;
71298;SDS011;59083;47.974;21.722;2023-02-01T01:39:40;10.38;;;4.12;;
71298;SDS011;59083;47.974;21.722;2023-02-01T01:42:42;11.73;;;4.22;;
71298;SDS011;59083;47.974;21.722;2023-02-01T01:45:45;10.13;;;3.67;;
71298;SDS011;59083;47.974;21.722;2023-02-01T01:48:52;10.47;;;4.00;;
71298;SDS011;59083;47.974;21.722;2023-02-01T01:52:11;9.85;;;3.72;;
71298;SDS011;59083;47.974;21.722;2023-02-01T01:55:13;11.05;;;3.90;;
71298;SDS011;59083;47.974;21.722;2023-02-01T01:58:18;11.00;;;3.90;;
71298;SDS011;59083;47.974;21.722;2023-02-01T02:01:22;12.43;;;4.10;;
71298;SDS011;59083;47.974;21.722;2023-02-01T02:04:23;10.00;;;4.00;;
71298;SDS011;59083;47.974;21.722;2023-02-01T02:07:28;9.85;;;3.80;;
71298;SDS011;59083;47.974;21.722;2023-02-01T02:10:33;10.00;;;3.70;;
71298;SDS011;59083;47.974;21.722;2023-02-01T02:13:53;9.95;;;3.70;;
71298;SDS011;59083;47.974;21.722;2023-02-01T02:39:59;10.30;;;4.20;;
71298;SDS011;59083;47.974;21.722;2023-02-01T02:43:20;11.52;;;3.87;;
71298;SDS011;59083;47.974;21.722;2023-02-01T02:46:45;13.73;;;3.53;;
71298;SDS011;59083;47.974;21.722;2023-02-01T02:50:11;12.90;;;3.60;;
71298;SDS011;59083;47.974;21.722;2023-02-01T02:53:48;9.33;;;3.17;;
71298;SDS011;59083;47.974;21.722;2023-02-01T03:00:52;11.88;;;3.92;;
71298;SDS011;59083;47.974;21.722;2023-02-01T03:04:14;10.73;;;3.83;;
71298;SDS011;59083;47.974;21.722;2023-02-01T03:14:01;12.37;;;3.92;;
71298;SDS011;59083;47.974;21.722;2023-02-01T03:17:09;10.55;;;3.80;;
71298;SDS011;59083;47.974;21.722;2023-02-01T03:20:17;15.52;;;4.00;;
71298;SDS011;59083;47.974;21.722;2023-02-01T03:23:23;12.73;;;4.17;;
71298;SDS011;59083;47.974;21.722;2023-02-01T03:26:29;11.27;;;3.87;;
71298;SDS011;59083;47.974;21.722;2023-02-01T03:29:34;10.98;;;4.00;;
71298;SDS011;59083;47.974;21.722;2023-02-01T03:32:41;11.52;;;4.25;;
71298;SDS011;59083;47.974;21.722;2023-02-01T03:36:16;9.07;;;3.67;;
71298;SDS011;59083;47.974;21.722;2023-02-01T03:39:25;9.50;;;4.40;;
71298;SDS011;59083;47.974;21.722;2023-02-01T03:42:43;12.93;;;4.33;;
71298;SDS011;59083;47.974;21.722;2023-02-01T03:45:51;11.32;;;4.05;;
71298;SDS011;59083;47.974;21.722;2023-02-01T03:48:57;12.93;;;4.60;;
71298;SDS011;59083;47.974;21.722;2023-02-01T03:52:00;12.65;;;4.70;;
71298;SDS011;59083;47.974;21.722;2023-02-01T03:55:02;13.50;;;4.43;;
71298;SDS011;59083;47.974;21.722;2023-02-01T03:58:07;13.17;;;4.30;;
71298;SDS011;59083;47.974;21.722;2023-02-01T04:01:12;10.55;;;4.95;;
71298;SDS011;59083;47.974;21.722;2023-02-01T04:04:15;7.18;;;3.72;;
71298;SDS011;59083;47.974;21.722;2023-02-01T04:07:20;12.40;;;3.78;;
71298;SDS011;59083;47.974;21.722;2023-02-01T04:10:22;8.80;;;4.50;;
71298;SDS011;59083;47.974;21.722;2023-02-01T04:13:23;14.83;;;5.30;;
71298;SDS011;59083;47.974;21.722;2023-02-01T04:16:24;15.32;;;4.70;;
71298;SDS011;59083;47.974;21.722;2023-02-01T04:19:25;11.48;;;4.35;;
71298;SDS011;59083;47.974;21.722;2023-02-01T04:22:27;13.52;;;4.80;;
71298;SDS011;59083;47.974;21.722;2023-02-01T04:25:29;10.90;;;4.50;;
71298;SDS011;59083;47.974;21.722;2023-02-01T04:28:31;14.00;;;4.90;;
71298;SDS011;59083;47.974;21.722;2023-02-01T04:31:32;9.45;;;4.50;;
71298;SDS011;59083;47.974;21.722;2023-02-01T04:34:33;14.07;;;4.60;;
71298;SDS011;59083;47.974;21.722;2023-02-01T04:37:35;9.18;;;4.10;;
71298;SDS011;59083;47.974;21.722;2023-02-01T04:40:36;13.87;;;4.60;;
71298;SDS011;59083;47.974;21.722;2023-02-01T04:43:40;14.07;;;4.50;;
71298;SDS011;59083;47.974;21.722;2023-02-01T04:46:41;9.88;;;4.22;;
71298;SDS011;59083;47.974;21.722;2023-02-01T04:49:43;10.18;;;4.20;;
71298;SDS011;59083;47.974;21.722;2023-02-01T04:52:44;11.18;;;4.65;;
71298;SDS011;59083;47.974;21.722;2023-02-01T04:55:47;15.10;;;6.17;;
71298;SDS011;59083;47.974;21.722;2023-02-01T04:58:49;11.73;;;4.40;;
71298;SDS011;59083;47.974;21.722;2023-02-01T05:01:50;12.45;;;5.80;;
71298;SDS011;59083;47.974;21.722;2023-02-01T05:04:52;10.50;;;4.03;;
71298;SDS011;59083;47.974;21.722;2023-02-01T05:07:53;11.25;;;4.18;;
71298;SDS011;59083;47.974;21.722;2023-02-01T05:10:55;11.47;;;4.37;;
71298;SDS011;59083;47.974;21.722;2023-02-01T05:13:56;22.67;;;10.07;;
71298;SDS011;59083;47.974;21.722;2023-02-01T05:16:57;14.90;;;6.65;;
71298;SDS011;59083;47.974;21.722;2023-02-01T05:19:58;15.82;;;6.22;;
71298;SDS011;59083;47.974;21.722;2023-02-01T05:23:00;14.90;;;6.75;;
71298;SDS011;59083;47.974;21.722;2023-02-01T05:26:01;12.73;;;5.10;;
71298;SDS011;59083;47.974;21.722;2023-02-01T05:29:03;12.03;;;5.17;;
71298;SDS011;59083;47.974;21.722;2023-02-01T05:32:05;12.43;;;5.22;;
71298;SDS011;59083;47.974;21.722;2023-02-01T05:35:07;10.50;;;4.78;;
71298;SDS011;59083;47.974;21.722;2023-02-01T05:38:09;13.45;;;4.87;;
71298;SDS011;59083;47.974;21.722;2023-02-01T05:41:10;18.40;;;7.83;;
71298;SDS011;59083;47.974;21.722;2023-02-01T05:44:11;15.43;;;7.10;;
71298;SDS011;59083;47.974;21.722;2023-02-01T05:47:13;15.02;;;7.05;;
71298;SDS011;59083;47.974;21.722;2023-02-01T05:50:14;19.42;;;7.95;;
71298;SDS011;59083;47.974;21.722;2023-02-01T05:53:17;15.70;;;7.75;;
71298;SDS011;59083;47.974;21.722;2023-02-01T05:56:18;16.97;;;7.83;;
71298;SDS011;59083;47.974;21.722;2023-02-01T05:59:20;16.93;;;7.77;;
71298;SDS011;59083;47.974;21.722;2023-02-01T06:02:21;35.85;;;14.75;;
71298;SDS011;59083;47.974;21.722;2023-02-01T06:05:22;14.18;;;7.37;;
71298;SDS011;59083;47.974;21.722;2023-02-01T06:08:24;14.63;;;7.22;;
71298;SDS011;59083;47.974;21.722;2023-02-01T06:11:26;15.17;;;7.67;;
71298;SDS011;59083;47.974;21.722;2023-02-01T06:14:28;18.70;;;7.63;;
71298;SDS011;59083;47.974;21.722;2023-02-01T06:17:29;15.15;;;6.20;;
71298;SDS011;59083;47.974;21.722;2023-02-01T06:20:31;19.62;;;7.28;;
71298;SDS011;59083;47.974;21.722;2023-02-01T06:23:32;18.15;;;6.40;;
71298;SDS011;59083;47.974;21.722;2023-02-01T06:26:34;11.83;;;6.77;;
71298;SDS011;59083;47.974;21.722;2023-02-01T06:29:35;14.30;;;6.50;;
71298;SDS011;59083;47.974;21.722;2023-02-01T06:32:36;15.43;;;6.32;;
71298;SDS011;59083;47.974;21.722;2023-02-01T06:35:38;19.48;;;10.13;;
71298;SDS011;59083;47.974;21.722;2023-02-01T06:38:39;14.20;;;6.60;;
71298;SDS011;59083;47.974;21.722;2023-02-01T06:41:40;22.00;;;8.93;;
71298;SDS011;59083;47.974;21.722;2023-02-01T06:44:42;19.77;;;9.33;;
71298;SDS011;59083;47.974;21.722;2023-02-01T06:47:43;23.20;;;8.30;;
71298;SDS011;59083;47.974;21.722;2023-02-01T06:50:45;17.20;;;7.28;;
71298;SDS011;59083;47.974;21.722;2023-02-01T06:53:46;16.55;;;6.72;;
71298;SDS011;59083;47.974;21.722;2023-02-01T06:56:47;15.60;;;7.20;;
71298;SDS011;59083;47.974;21.722;2023-02-01T06:59:49;19.50;;;8.73;;
71298;SDS011;59083;47.974;21.722;2023-02-01T07:02:50;27.98;;;8.43;;
71298;SDS011;59083;47.974;21.722;2023-02-01T07:05:54;22.77;;;10.05;;
71298;SDS011;59083;47.974;21.722;2023-02-01T07:08:57;24.67;;;10.27;;
71298;SDS011;59083;47.974;21.722;2023-02-01T07:11:59;42.97;;;17.93;;
71298;SDS011;59083;47.974;21.722;2023-02-01T07:15:00;21.67;;;9.53;;
71298;SDS011;59083;47.974;21.722;2023-02-01T07:18:03;18.85;;;8.77;;
71298;SDS011;59083;47.974;21.722;2023-02-01T07:21:04;22.00;;;8.52;;
71298;SDS011;59083;47.974;21.722;2023-02-01T07:24:06;19.98;;;8.85;;
71298;SDS011;59083;47.974;21.722;2023-02-01T07:27:07;17.37;;;8.20;;
71298;SDS011;59083;47.974;21.722;2023-02-01T07:30:09;18.20;;;8.60;;
71298;SDS011;59083;47.974;21.722;2023-02-01T07:33:10;21.15;;;8.45;;
71298;SDS011;59083;47.974;21.722;2023-02-01T07:36:13;16.25;;;7.72;;
71298;SDS011;59083;47.974;21.722;2023-02-01T07:39:15;20.60;;;7.82;;
71298;SDS011;59083;47.974;21.722;2023-02-01T07:42:17;17.10;;;7.70;;
71298;SDS011;59083;47.974;21.722;2023-02-01T07:45:19;19.63;;;8.00;;
71298;SDS011;59083;47.974;21.722;2023-02-01T07:48:21;25.17;;;11.73;;
71298;SDS011;59083;47.974;21.722;2023-02-01T07:51:23;18.98;;;8.02;;
71298;SDS011;59083;47.974;21.722;2023-02-01T07:54:25;21.40;;;8.57;;
71298;SDS011;59083;47.974;21.722;2023-02-01T07:57:26;16.60;;;7.47;;
71298;SDS011;59083;47.974;21.722;2023-02-01T08:00:27;20.67;;;6.87;;
71298;SDS011;59083;47.974;21.722;2023-02-01T08:03:48;14.60;;;7.10;;
71298;SDS011;59083;47.974;21.722;2023-02-01T08:06:51;13.07;;;6.03;;
71298;SDS011;59083;47.974;21.722;2023-02-01T08:09:52;12.30;;;6.60;;
71298;SDS011;59083;47.974;21.722;2023-02-01T08:12:57;11.97;;;6.00;;
71298;SDS011;59083;47.974;21.722;2023-02-01T08:16:04;14.67;;;6.03;;
71298;SDS011;59083;47.974;21.722;2023-02-01T08:19:07;13.40;;;6.30;;
71298;SDS011;59083;47.974;21.722;2023-02-01T08:22:08;11.45;;;5.82;;
71298;SDS011;59083;47.974;21.722;2023-02-01T08:25:09;12.68;;;5.60;;
71298;SDS011;59083;47.974;21.722;2023-02-01T08:28:11;11.63;;;5.70;;
71298;SDS011;59083;47.974;21.722;2023-02-01T08:31:13;13.93;;;5.80;;
71298;SDS011;59083;47.974;21.722;2023-02-01T08:34:17;14.90;;;5.68;;
71298;SDS011;59083;47.974;21.722;2023-02-01T08:37:18;16.08;;;7.12;;
71298;SDS011;59083;47.974;21.722;2023-02-01T08:40:20;13.62;;;5.62;;
71298;SDS011;59083;47.974;21.722;2023-02-01T08:43:22;14.03;;;5.47;;
71298;SDS011;59083;47.974;21.722;2023-02-01T08:46:24;10.73;;;4.53;;
71298;SDS011;59083;47.974;21.722;2023-02-01T08:49:25;12.88;;;6.10;;
71298;SDS011;59083;47.974;21.722;2023-02-01T08:52:27;13.45;;;5.72;;
71298;SDS011;59083;47.974;21.722;2023-02-01T08:55:28;9.18;;;4.00;;
71298;SDS011;59083;47.974;21.722;2023-02-01T08:58:29;8.20;;;3.60;;
71298;SDS011;59083;47.974;21.722;2023-02-01T09:01:31;10.03;;;3.57;;
71298;SDS011;59083;47.974;21.722;2023-02-01T09:04:32;14.15;;;6.55;;
71298;SDS011;59083;47.974;21.722;2023-02-01T09:07:33;9.43;;;3.50;;
71298;SDS011;59083;47.974;21.722;2023-02-01T09:10:36;5.70;;;2.80;;
71298;SDS011;59083;47.974;21.722;2023-02-01T09:13:37;8.50;;;3.10;;
71298;SDS011;59083;47.974;21.722;2023-02-01T09:16:38;9.37;;;3.17;;
71298;SDS011;59083;47.974;21.722;2023-02-01T09:19:39;6.75;;;2.72;;
71298;SDS011;59083;47.974;21.722;2023-02-01T09:22:41;8.63;;;2.60;;
71298;SDS011;59083;47.974;21.722;2023-02-01T09:25:42;7.45;;;2.60;;
71298;SDS011;59083;47.974;21.722;2023-02-01T09:28:44;6.53;;;2.73;;
71298;SDS011;59083;47.974;21.722;2023-02-01T09:31:45;6.50;;;2.60;;
71298;SDS011;59083;47.974;21.722;2023-02-01T09:34:46;7.22;;;2.20;;
71298;SDS011;59083;47.974;21.722;2023-02-01T09:37:48;7.93;;;2.55;;
71298;SDS011;59083;47.974;21.722;2023-02-01T09:40:50;8.93;;;3.10;;
71298;SDS011;59083;47.974;21.722;2023-02-01T09:43:53;11.53;;;3.60;;
71298;SDS011;59083;47.974;21.722;2023-02-01T09:47:10;6.83;;;2.13;;
71298;SDS011;59083;47.974;21.722;2023-02-01T09:50:17;7.30;;;1.90;;
71298;SDS011;59083;47.974;21.722;2023-02-01T09:56:32;6.53;;;2.20;;
71298;SDS011;59083;47.974;21.722;2023-02-01T09:59:38;6.63;;;2.20;;
71298;SDS011;59083;47.974;21.722;2023-02-01T10:02:42;5.23;;;2.47;;
71298;SDS011;59083;47.974;21.722;2023-02-01T10:23:06;8.93;;;4.45;;
71298;SDS011;59083;47.974;21.722;2023-02-01T10:26:24;10.95;;;3.90;;
71298;SDS011;59083;47.974;21.722;2023-02-01T10:29:32;10.15;;;5.00;;
71298;SDS011;59083;47.974;21.722;2023-02-01T10:32:38;8.63;;;4.00;;
71298;SDS011;59083;47.974;21.722;2023-02-01T10:35:40;8.83;;;4.20;;
71298;SDS011;59083;47.974;21.722;2023-02-01T10:38:45;8.35;;;4.07;;
71298;SDS011;59083;47.974;21.722;2023-02-01T10:41:46;9.02;;;4.28;;
71298;SDS011;59083;47.974;21.722;2023-02-01T10:44:48;10.23;;;4.28;;
71298;SDS011;59083;47.974;21.722;2023-02-01T10:47:50;8.67;;;3.30;;
71298;SDS011;59083;47.974;21.722;2023-02-01T10:50:54;9.23;;;4.10;;
71298;SDS011;59083;47.974;21.722;2023-02-01T10:54:21;10.27;;;4.25;;
71298;SDS011;59083;47.974;21.722;2023-02-01T10:57:33;12.18;;;5.20;;
71298;SDS011;59083;47.974;21.722;2023-02-01T11:00:38;10.27;;;3.90;;
71298;SDS011;59083;47.974;21.722;2023-02-01T11:03:45;8.50;;;3.23;;
71298;SDS011;59083;47.974;21.722;2023-02-01T11:07:05;8.60;;;3.53;;
71298;SDS011;59083;47.974;21.722;2023-02-01T11:13:41;11.10;;;3.47;;
71298;SDS011;59083;47.974;21.722;2023-02-01T11:16:46;10.18;;;3.80;;
71298;SDS011;59083;47.974;21.722;2023-02-01T11:19:57;8.07;;;3.20;;
71298;SDS011;59083;47.974;21.722;2023-02-01T11:23:04;7.43;;;3.07;;
71298;SDS011;59083;47.974;21.722;2023-02-01T11:29:37;7.07;;;3.00;;
71298;SDS011;59083;47.974;21.722;2023-02-01T11:32:43;8.43;;;2.60;;
71298;SDS011;59083;47.974;21.722;2023-02-01T11:35:49;8.47;;;2.87;;
71298;SDS011;59083;47.974;21.722;2023-02-01T11:38:54;7.00;;;2.70;;
71298;SDS011;59083;47.974;21.722;2023-02-01T11:42:13;8.50;;;3.15;;
71298;SDS011;59083;47.974;21.722;2023-02-01T11:45:18;8.52;;;3.03;;
71298;SDS011;59083;47.974;21.722;2023-02-01T11:48:27;8.40;;;3.50;;
71298;SDS011;59083;47.974;21.722;2023-02-01T11:51:37;8.60;;;4.27;;
71298;SDS011;59083;47.974;21.722;2023-02-01T12:11:29;6.50;;;3.10;;
71298;SDS011;59083;47.974;21.722;2023-02-01T12:14:45;13.32;;;3.42;;
71298;SDS011;59083;47.974;21.722;2023-02-01T12:18:26;15.20;;;3.97;;
71298;SDS011;59083;47.974;21.722;2023-02-01T12:21:33;12.05;;;5.12;;
71298;SDS011;59083;47.974;21.722;2023-02-01T12:31:30;12.52;;;3.53;;
71298;SDS011;59083;47.974;21.722;2023-02-01T12:42:00;8.17;;;3.30;;
71298;SDS011;59083;47.974;21.722;2023-02-01T12:45:12;7.93;;;2.97;;
71298;SDS011;59083;47.974;21.722;2023-02-01T12:48:33;7.85;;;3.22;;
71298;SDS011;59083;47.974;21.722;2023-02-01T12:51:40;12.15;;;3.37;;
71298;SDS011;59083;47.974;21.722;2023-02-01T12:54:48;9.73;;;3.65;;
71298;SDS011;59083;47.974;21.722;2023-02-01T12:58:17;12.20;;;3.60;;
71298;SDS011;59083;47.974;21.722;2023-02-01T13:01:28;7.30;;;2.87;;
71298;SDS011;59083;47.974;21.722;2023-02-01T13:04:38;8.35;;;2.45;;
71298;SDS011;59083;47.974;21.722;2023-02-01T13:10:47;8.23;;;2.12;;
71298;SDS011;59083;47.974;21.722;2023-02-01T13:17:30;9.07;;;2.87;;
71298;SDS011;59083;47.974;21.722;2023-02-01T13:20:48;10.75;;;4.00;;
71298;SDS011;59083;47.974;21.722;2023-02-01T13:23:54;10.40;;;3.33;;
71298;SDS011;59083;47.974;21.722;2023-02-01T13:26:56;8.10;;;2.00;;
71298;SDS011;59083;47.974;21.722;2023-02-01T13:30:02;9.70;;;2.20;;
71298;SDS011;59083;47.974;21.722;2023-02-01T13:37:14;4.78;;;2.00;;
71298;SDS011;59083;47.974;21.722;2023-02-01T13:40:39;5.93;;;1.83;;
71298;SDS011;59083;47.974;21.722;2023-02-01T13:43:47;6.18;;;1.90;;
71298;SDS011;59083;47.974;21.722;2023-02-01T13:46:51;7.33;;;2.30;;
71298;SDS011;59083;47.974;21.722;2023-02-01T13:49:59;6.37;;;2.40;;
71298;SDS011;59083;47.974;21.722;2023-02-01T13:56:15;6.57;;;2.20;;
71298;SDS011;59083;47.974;21.722;2023-02-01T14:16:10;8.75;;;1.98;;
71298;SDS011;59083;47.974;21.722;2023-02-01T14:19:23;5.87;;;2.10;;
71298;SDS011;59083;47.974;21.722;2023-02-01T14:22:33;8.00;;;2.40;;
71298;SDS011;59083;47.974;21.722;2023-02-01T14:25:35;7.72;;;2.70;;
71298;SDS011;59083;47.974;21.722;2023-02-01T14:28:39;9.25;;;2.97;;
71298;SDS011;59083;47.974;21.722;2023-02-01T14:35:19;11.70;;;2.70;;
71298;SDS011;59083;47.974;21.722;2023-02-01T14:38:26;6.93;;;2.73;;
71298;SDS011;59083;47.974;21.722;2023-02-01T14:41:34;7.93;;;2.97;;
71298;SDS011;59083;47.974;21.722;2023-02-01T14:44:36;13.30;;;3.70;;
71298;SDS011;59083;47.974;21.722;2023-02-01T14:47:37;12.52;;;3.28;;
71298;SDS011;59083;47.974;21.722;2023-02-01T14:50:39;10.53;;;3.30;;
71298;SDS011;59083;47.974;21.722;2023-02-01T14:53:43;7.67;;;2.20;;
71298;SDS011;59083;47.974;21.722;2023-02-01T14:56:47;7.70;;;2.90;;
71298;SDS011;59083;47.974;21.722;2023-02-01T14:59:52;8.75;;;2.03;;
71298;SDS011;59083;47.974;21.722;2023-02-01T15:03:23;4.97;;;1.85;;
71298;SDS011;59083;47.974;21.722;2023-02-01T15:06:41;6.20;;;2.00;;
71298;SDS011;59083;47.974;21.722;2023-02-01T15:09:46;8.13;;;2.40;;
71298;SDS011;59083;47.974;21.722;2023-02-01T15:12:48;8.50;;;2.53;;
71298;SDS011;59083;47.974;21.722;2023-02-01T15:19:16;7.78;;;2.58;;
71298;SDS011;59083;47.974;21.722;2023-02-01T15:22:18;5.60;;;2.10;;
71298;SDS011;59083;47.974;21.722;2023-02-01T15:25:21;5.40;;;1.93;;
71298;SDS011;59083;47.974;21.722;2023-02-01T15:28:27;5.43;;;2.08;;
71298;SDS011;59083;47.974;21.722;2023-02-01T15:31:47;8.32;;;2.60;;
71298;SDS011;59083;47.974;21.722;2023-02-01T15:34:50;5.53;;;2.30;;
71298;SDS011;59083;47.974;21.722;2023-02-01T15:37:52;6.50;;;2.40;;
71298;SDS011;59083;47.974;21.722;2023-02-01T15:47:05;8.85;;;2.70;;
71298;SDS011;59083;47.974;21.722;2023-02-01T15:50:29;5.03;;;1.87;;
71298;SDS011;59083;47.974;21.722;2023-02-01T15:53:32;5.47;;;2.13;;
71298;SDS011;59083;47.974;21.722;2023-02-01T15:56:39;5.77;;;1.93;;
71298;SDS011;59083;47.974;21.722;2023-02-01T15:59:42;7.95;;;2.30;;
71298;SDS011;59083;47.974;21.722;2023-02-01T16:05:58;4.28;;;1.50;;
71298;SDS011;59083;47.974;21.722;2023-02-01T16:09:05;4.23;;;1.90;;
71298;SDS011;59083;47.974;21.722;2023-02-01T16:15:38;6.32;;;1.85;;
71298;SDS011;59083;47.974;21.722;2023-02-01T16:18:40;6.45;;;1.70;;
71298;SDS011;59083;47.974;21.722;2023-02-01T16:21:42;6.30;;;2.15;;
71298;SDS011;59083;47.974;21.722;2023-02-01T16:24:43;4.63;;;1.70;;
71298;SDS011;59083;47.974;21.722;2023-02-01T16:27:44;4.37;;;1.80;;
71298;SDS011;59083;47.974;21.722;2023-02-01T16:30:47;5.78;;;2.15;;
71298;SDS011;59083;47.974;21.722;2023-02-01T16:33:49;7.07;;;2.03;;
71298;SDS011;59083;47.974;21.722;2023-02-01T16:36:51;6.37;;;2.00;;
71298;SDS011;59083;47.974;21.722;2023-02-01T16:39:54;5.27;;;2.00;;
71298;SDS011;59083;47.974;21.722;2023-02-01T16:42:55;7.47;;;2.77;;
71298;SDS011;59083;47.974;21.722;2023-02-01T16:45:58;6.00;;;1.80;;
71298;SDS011;59083;47.974;21.722;2023-02-01T16:49:02;3.15;;;1.50;;
71298;SDS011;59083;47.974;21.722;2023-02-01T16:52:03;5.97;;;2.28;;
71298;SDS011;59083;47.974;21.722;2023-02-01T16:55:09;6.60;;;2.10;;
71298;SDS011;59083;47.974;21.722;2023-02-01T16:58:14;4.00;;;1.80;;
71298;SDS011;59083;47.974;21.722;2023-02-01T17:01:19;6.43;;;2.30;;
71298;SDS011;59083;47.974;21.722;2023-02-01T17:04:20;9.40;;;3.58;;
71298;SDS011;59083;47.974;21.722;2023-02-01T17:07:22;8.20;;;3.10;;
71298;SDS011;59083;47.974;21.722;2023-02-01T17:10:23;6.67;;;2.80;;
71298;SDS011;59083;47.974;21.722;2023-02-01T17:13:28;5.43;;;2.10;;
71298;SDS011;59083;47.974;21.722;2023-02-01T17:16:30;5.72;;;2.30;;
71298;SDS011;59083;47.974;21.722;2023-02-01T17:19:32;7.35;;;2.97;;
71298;SDS011;59083;47.974;21.722;2023-02-01T17:22:33;13.13;;;4.25;;
71298;SDS011;59083;47.974;21.722;2023-02-01T17:25:34;4.93;;;2.10;;
71298;SDS011;59083;47.974;21.722;2023-02-01T17:28:36;6.80;;;2.27;;
71298;SDS011;59083;47.974;21.722;2023-02-01T17:31:39;6.32;;;2.00;;
71298;SDS011;59083;47.974;21.722;2023-02-01T17:34:42;3.97;;;1.60;;
71298;SDS011;59083;47.974;21.722;2023-02-01T17:37:44;3.15;;;1.50;;
71298;SDS011;59083;47.974;21.722;2023-02-01T17:40:45;4.60;;;1.57;;
71298;SDS011;59083;47.974;21.722;2023-02-01T17:43:47;5.20;;;1.80;;
71298;SDS011;59083;47.974;21.722;2023-02-01T17:46:49;4.35;;;1.90;;
71298;SDS011;59083;47.974;21.722;2023-02-01T17:49:50;4.90;;;2.22;;
71298;SDS011;59083;47.974;21.722;2023-02-01T17:52:56;3.62;;;1.42;;
71298;SDS011;59083;47.974;21.722;2023-02-01T17:55:57;6.80;;;2.20;;
71298;SDS011;59083;47.974;21.722;2023-02-01T17:58:58;5.57;;;1.90;;
71298;SDS011;59083;47.974;21.722;2023-02-01T18:02:00;4.32;;;2.10;;
71298;SDS011;59083;47.974;21.722;2023-02-01T18:05:04;10.60;;;3.97;;
71298;SDS011;59083;47.974;21.722;2023-02-01T18:08:24;6.37;;;2.58;;
71298;SDS011;59083;47.974;21.722;2023-02-01T18:11:26;5.87;;;2.40;;
71298;SDS011;59083;47.974;21.722;2023-02-01T18:14:30;10.77;;;3.20;;
71298;SDS011;59083;47.974;21.722;2023-02-01T18:17:31;6.12;;;2.37;;
71298;SDS011;59083;47.974;21.722;2023-02-01T18:20:32;7.25;;;2.55;;
71298;SDS011;59083;47.974;21.722;2023-02-01T18:23:36;6.68;;;2.60;;
71298;SDS011;59083;47.974;21.722;2023-02-01T18:26:37;5.90;;;2.33;;
71298;SDS011;59083;47.974;21.722;2023-02-01T18:29:38;7.87;;;2.50;;
71298;SDS011;59083;47.974;21.722;2023-02-01T18:32:39;7.07;;;2.67;;
71298;SDS011;59083;47.974;21.722;2023-02-01T18:35:42;5.82;;;2.20;;
71298;SDS011;59083;47.974;21.722;2023-02-01T18:38:44;7.00;;;2.80;;
71298;SDS011;59083;47.974;21.722;2023-02-01T18:41:46;6.47;;;2.60;;
71298;SDS011;59083;47.974;21.722;2023-02-01T18:44:49;7.00;;;2.90;;
71298;SDS011;59083;47.974;21.722;2023-02-01T18:47:50;6.57;;;2.78;;
71298;SDS011;59083;47.974;21.722;2023-02-01T18:50:51;8.48;;;2.62;;
71298;SDS011;59083;47.974;21.722;2023-02-01T18:53:57;7.65;;;2.37;;
71298;SDS011;59083;47.974;21.722;2023-02-01T18:56:58;5.90;;;2.40;;
71298;SDS011;59083;47.974;21.722;2023-02-01T18:59:59;6.67;;;2.53;;
71298;SDS011;59083;47.974;21.722;2023-02-01T19:03:01;7.87;;;3.47;;
71298;SDS011;59083;47.974;21.722;2023-02-01T19:06:03;7.37;;;2.67;;
71298;SDS011;59083;47.974;21.722;2023-02-01T19:09:04;6.20;;;2.70;;
71298;SDS011;59083;47.974;21.722;2023-02-01T19:12:05;6.40;;;2.40;;
71298;SDS011;59083;47.974;21.722;2023-02-01T19:15:07;7.00;;;2.70;;
71298;SDS011;59083;47.974;21.722;2023-02-01T19:18:12;7.28;;;2.75;;
71298;SDS011;59083;47.974;21.722;2023-02-01T19:21:15;5.72;;;2.58;;
71298;SDS011;59083;47.974;21.722;2023-02-01T19:24:17;6.57;;;2.45;;
71298;SDS011;59083;47.974;21.722;2023-02-01T19:27:18;7.70;;;2.63;;
71298;SDS011;59083;47.974;21.722;2023-02-01T19:30:20;6.23;;;2.60;;
71298;SDS011;59083;47.974;21.722;2023-02-01T19:33:23;6.95;;;2.58;;
71298;SDS011;59083;47.974;21.722;2023-02-01T19:36:24;6.87;;;2.55;;
71298;SDS011;59083;47.974;21.722;2023-02-01T19:39:26;7.03;;;2.72;;
71298;SDS011;59083;47.974;21.722;2023-02-01T19:42:27;7.30;;;2.83;;
71298;SDS011;59083;47.974;21.722;2023-02-01T19:45:29;6.97;;;3.10;;
71298;SDS011;59083;47.974;21.722;2023-02-01T19:48:31;8.77;;;3.05;;
71298;SDS011;59083;47.974;21.722;2023-02-01T19:51:33;7.25;;;3.00;;
71298;SDS011;59083;47.974;21.722;2023-02-01T19:54:35;6.68;;;3.08;;
71298;SDS011;59083;47.974;21.722;2023-02-01T19:57:36;8.53;;;2.93;;
71298;SDS011;59083;47.974;21.722;2023-02-01T20:00:38;8.27;;;3.20;;
71298;SDS011;59083;47.974;21.722;2023-02-01T20:03:39;7.37;;;2.83;;
71298;SDS011;59083;47.974;21.722;2023-02-01T20:06:41;8.07;;;3.17;;
71298;SDS011;59083;47.974;21.722;2023-02-01T20:09:49;7.55;;;3.28;;
71298;SDS011;59083;47.974;21.722;2023-02-01T20:12:51;6.63;;;3.10;;
71298;SDS011;59083;47.974;21.722;2023-02-01T20:15:58;8.47;;;3.70;;
71298;SDS011;59083;47.974;21.722;2023-02-01T20:18:59;8.30;;;3.60;;
71298;SDS011;59083;47.974;21.722;2023-02-01T20:22:01;7.68;;;3.70;;
71298;SDS011;59083;47.974;21.722;2023-02-01T20:25:02;8.48;;;3.62;;
71298;SDS011;59083;47.974;21.722;2023-02-01T20:28:04;7.77;;;2.93;;
71298;SDS011;59083;47.974;21.722;2023-02-01T20:31:06;8.50;;;3.50;;